Time;durP1;ratioP1;P1;durP2;ratioP2;P2;SDS_P1;SDS_P2;PMS_P1;PMS_P2;Temp;Humidity;BMP_temperature;BMP_pressure;BME280_temperature;BME280_humidity;BME280_pressure;Samples;Min_cycle;Max_cycle;Signal;HPM_P1;HPM_P2
2022/05/10 00:00:38;;;;;;;;;;;;;;;13.04;60.76;93429.53;2071569;69;20053;-72
2022/05/10 00:03:05;;;;;;;;;;;;;;;12.84;61.65;93426.88;2058845;69;20073;-72
2022/05/10 00:05:34;;;;;;;;;;;;;;;13.11;60.98;93425.75;2058983;69;20134;-73
2022/05/10 00:08:00;;;;;;;;;;;;;;;12.88;62.17;93418.69;2058800;69;20057;-74
2022/05/10 00:10:26;;;;;;;;;;;;;;;12.76;63.20;93425.63;2058966;69;20423;-70
2022/05/10 00:12:52;;;;;;;;;;;;;;;12.68;63.21;93429.41;2058951;69;20504;-69
2022/05/10 00:15:17;;;;;;;;;;;;;;;12.77;63.14;93425.00;2058951;69;20053;-71
2022/05/10 00:17:43;;;;;;;;;;;;;;;12.68;63.08;93420.19;2071919;69;20050;-70
2022/05/10 00:20:11;;;;;;;;;;;;;;;12.82;60.83;93417.53;2058912;69;20050;-73
2022/05/10 00:22:37;;;;;;;;;;;;;;;12.94;61.33;93419.06;2058719;69;20435;-70
2022/05/10 00:25:03;;;;;;;;;;;;;;;12.97;60.94;93428.41;2058851;69;20425;-70
2022/05/10 00:27:28;;;;;;;;;;;;;;;12.90;61.63;93424.44;2058904;69;20053;-70
2022/05/10 00:29:54;;;;;;;;;;;;;;;12.77;61.79;93418.63;2071999;69;20069;-70
2022/05/10 00:32:19;;;;;;;;;;;;;;;12.78;61.55;93431.41;2058599;69;20046;-70
2022/05/10 00:34:48;;;;;;;;;;;;;;;12.90;60.30;93430.09;2059026;69;20429;-71
2022/05/10 00:37:15;;;;;;;;;;;;;;;12.94;60.89;93423.97;2058855;69;20526;-71
2022/05/10 00:39:40;;;;;;;;;;;;;;;12.70;61.54;93420.34;2058756;69;20058;-71
2022/05/10 00:42:07;;;;;;;;;;;;;;;12.64;61.98;93415.00;2058585;69;20661;-70
2022/05/10 00:44:41;;;;;;;;;;;;;;;12.51;63.14;93417.66;2058815;69;20050;-71
2022/05/10 00:47:18;;;;;;;;;;;;;;;12.55;62.81;93415.09;2058881;69;20474;-70
2022/05/10 00:49:46;;;;;;;;;;;;;;;12.53;62.83;93417.81;2058812;69;20058;-71
2022/05/10 00:52:16;;;;;;;;;;;;;;;12.53;62.57;93412.16;2058499;69;20057;-70
2022/05/10 00:54:45;;;;;;;;;;;;;;;12.62;61.54;93403.59;2058846;69;20073;-70
2022/05/10 00:57:10;;;;;;;;;;;;;;;12.38;62.48;93408.41;2058784;69;20054;-70
2022/05/10 00:59:37;;;;;;;;;;;;;;;12.43;62.87;93407.31;2058825;69;20086;-72
2022/05/10 01:05:47;;;;;;;;;;;;;;;12.18;63.77;93410.63;2058863;69;20049;-73
2022/05/10 01:08:23;;;;;;;;;;;;;;;12.19;63.08;93405.75;2071880;69;20054;-71
2022/05/10 01:11:04;;;;;;;;;;;;;;;12.19;63.40;93414.94;2071835;69;20089;-71
2022/05/10 01:13:42;;;;;;;;;;;;;;;12.15;63.11;93406.19;2058596;69;20157;-71
2022/05/10 01:16:12;;;;;;;;;;;;;;;12.07;63.62;93402.09;2058776;69;20145;-70
2022/05/10 01:18:39;;;;;;;;;;;;;;;11.83;65.23;93401.22;2058758;69;20138;-70
2022/05/10 01:21:19;;;;;;;;;;;;;;;12.16;63.31;93412.59;2058342;69;20146;-70
2022/05/10 01:23:45;;;;;;;;;;;;;;;11.91;64.19;93407.38;2058989;69;20105;-71
2022/05/10 01:26:20;;;;;;;;;;;;;;;11.91;63.83;93407.38;2058703;69;20100;-71
2022/05/10 01:28:51;;;;;;;;;;;;;;;12.02;63.27;93406.72;2058753;69;20398;-69
2022/05/10 01:31:22;;;;;;;;;;;;;;;11.85;63.97;93407.72;2071628;69;20058;-70
2022/05/10 01:33:53;;;;;;;;;;;;;;;11.63;65.49;93398.47;2058508;69;20074;-71
2022/05/10 01:36:19;;;;;;;;;;;;;;;12.06;63.07;93403.44;2058457;69;20520;-70
2022/05/10 01:42:23;;;;;;;;;;;;;;;11.79;64.08;93398.09;2058658;69;20197;-69
2022/05/10 01:44:54;;;;;;;;;;;;;;;11.88;63.04;93395.25;2058685;69;20165;-71
2022/05/10 01:47:20;;;;;;;;;;;;;;;11.88;63.73;93395.25;2058592;69;20099;-70
2022/05/10 01:53:19;;;;;;;;;;;;;;;11.96;63.73;93400.69;2058744;69;20052;-73
2022/05/10 01:55:50;;;;;;;;;;;;;;;11.95;63.59;93404.84;2071734;69;20430;-72
2022/05/10 01:58:23;;;;;;;;;;;;;;;11.86;63.47;93406.38;2058354;69;20065;-70
2022/05/10 02:00:55;;;;;;;;;;;;;;;11.78;63.92;93405.09;2068997;69;20050;-70
2022/05/10 02:03:39;;;;;;;;;;;;;;;11.64;64.15;93408.41;2058563;69;20049;-69
2022/05/10 02:09:32;;;;;;;;;;;;;;;11.58;63.49;93415.72;2058633;69;20501;-69
2022/05/10 02:12:03;;;;;;;;;;;;;;;11.74;63.48;93413.28;2058660;69;20050;-71
2022/05/10 02:14:28;;;;;;;;;;;;;;;11.53;64.81;93417.50;2058944;69;20050;-70
2022/05/10 02:17:04;;;;;;;;;;;;;;;11.56;64.21;93407.13;2059196;69;20072;-72
2022/05/10 02:19:32;;;;;;;;;;;;;;;11.27;65.46;93405.19;2058969;69;20050;-70
2022/05/10 02:22:01;;;;;;;;;;;;;;;11.13;66.28;93407.75;2059099;69;20086;-71
2022/05/10 02:24:30;;;;;;;;;;;;;;;11.32;64.78;93409.03;2059066;69;20052;-71
2022/05/10 02:26:57;;;;;;;;;;;;;;;11.38;64.83;93407.34;2058855;69;20065;-71
2022/05/10 02:29:35;;;;;;;;;;;;;;;11.34;65.24;93407.06;2058803;69;20048;-71
2022/05/10 02:34:53;;;;;;;;;;;;;;;11.35;64.94;93413.44;2059086;69;20050;-71
2022/05/10 02:37:19;;;;;;;;;;;;;;;11.43;64.13;93420.38;2058961;69;20046;-70
2022/05/10 02:39:44;;;;;;;;;;;;;;;11.54;63.09;93421.81;2059088;69;20061;-70
2022/05/10 02:45:39;;;;;;;;;;;;;;;11.49;63.58;93420.06;2058679;69;20609;-73
2022/05/10 02:48:04;;;;;;;;;;;;;;;11.50;63.24;93418.72;2058821;69;20065;-71
2022/05/10 02:50:33;;;;;;;;;;;;;;;11.49;63.63;93410.84;2058894;69;20054;-70
2022/05/10 02:52:58;;;;;;;;;;;;;;;11.31;65.00;93408.25;2058943;69;20047;-73
2022/05/10 02:58:58;;;;;;;;;;;;;;;11.30;63.94;93408.88;2059020;69;20049;-72
2022/05/10 03:04:53;;;;;;;;;;;;;;;11.30;64.57;93412.41;2058920;69;20072;-72
2022/05/10 03:10:47;;;;;;;;;;;;;;;11.50;63.38;93409.50;2058662;69;20057;-70
2022/05/10 03:13:13;;;;;;;;;;;;;;;11.32;63.71;93398.47;2059068;69;20042;-71
2022/05/10 03:15:39;;;;;;;;;;;;;;;11.44;62.72;93404.94;2058905;69;20042;-70
2022/05/10 03:18:04;;;;;;;;;;;;;;;11.62;62.00;93394.16;2072068;69;20074;-70
2022/05/10 03:20:30;;;;;;;;;;;;;;;11.29;63.54;93398.94;2059011;69;20050;-70
2022/05/10 03:22:55;;;;;;;;;;;;;;;11.42;62.35;93401.25;2058836;69;20137;-70
2022/05/10 03:28:49;;;;;;;;;;;;;;;11.47;62.07;93405.81;2059052;69;20068;-70
2022/05/10 03:31:16;;;;;;;;;;;;;;;11.41;62.55;93411.78;2058698;69;20081;-71
2022/05/10 03:33:42;;;;;;;;;;;;;;;11.31;63.16;93407.53;2058789;69;20057;-70
2022/05/10 03:36:08;;;;;;;;;;;;;;;11.28;64.03;93403.84;2058953;69;20065;-72
2022/05/10 03:38:33;;;;;;;;;;;;;;;11.33;62.89;93399.94;2058971;69;20421;-72
2022/05/10 03:40:59;;;;;;;;;;;;;;;11.34;63.02;93400.69;2071996;69;20114;-71
2022/05/10 03:46:53;;;;;;;;;;;;;;;11.26;63.75;93402.94;2058778;69;20057;-70
2022/05/10 03:49:19;;;;;;;;;;;;;;;11.24;63.91;93405.63;2058916;69;20046;-72
2022/05/10 03:55:14;;;;;;;;;;;;;;;11.48;61.69;93407.31;2059106;69;20154;-70
2022/05/10 03:57:40;;;;;;;;;;;;;;;11.33;62.94;93413.31;2058910;69;20045;-71
2022/05/10 04:00:07;;;;;;;;;;;;;;;11.32;63.02;93417.47;2072152;69;20049;-71
2022/05/10 04:02:38;;;;;;;;;;;;;;;11.39;61.77;93425.00;2071164;69;20057;-70
2022/05/10 04:05:04;;;;;;;;;;;;;;;11.47;62.20;93422.75;2059164;69;20050;-73
2022/05/10 04:07:30;;;;;;;;;;;;;;;11.02;64.18;93427.34;2059783;69;20058;-75
2022/05/10 04:09:56;;;;;;;;;;;;;;;11.13;63.75;93427.47;2059565;69;20050;-73
2022/05/10 04:12:21;;;;;;;;;;;;;;;11.03;63.92;93420.38;2059516;69;20065;-75
2022/05/10 04:14:47;;;;;;;;;;;;;;;10.99;64.28;93422.91;2059738;69;20089;-73
2022/05/10 04:17:12;;;;;;;;;;;;;;;11.04;64.75;93428.25;2059465;69;20494;-73
2022/05/10 04:19:38;;;;;;;;;;;;;;;10.94;65.06;93413.41;2059208;69;20052;-72
2022/05/10 04:22:04;;;;;;;;;;;;;;;10.90;64.00;93421.56;2072616;69;20053;-74
2022/05/10 04:24:29;;;;;;;;;;;;;;;11.02;63.49;93416.81;2072462;69;20089;-73
2022/05/10 04:26:55;;;;;;;;;;;;;;;11.14;63.59;93425.41;2059252;69;20112;-72
2022/05/10 04:29:20;;;;;;;;;;;;;;;11.27;63.06;93418.50;2059336;69;20057;-72
2022/05/10 04:31:46;;;;;;;;;;;;;;;11.16;64.48;93412.16;2058989;69;20123;-72
2022/05/10 04:34:11;;;;;;;;;;;;;;;10.95;64.70;93417.75;2072061;69;20095;-72
2022/05/10 04:36:37;;;;;;;;;;;;;;;10.91;64.52;93423.09;2059080;69;20062;-73
2022/05/10 04:39:02;;;;;;;;;;;;;;;11.03;64.64;93431.63;2058880;69;20133;-73
2022/05/10 04:41:30;;;;;;;;;;;;;;;11.14;64.00;93428.22;2058645;69;20057;-74
2022/05/10 04:47:26;;;;;;;;;;;;;;;11.14;63.07;93434.59;2058964;69;20525;-72
2022/05/10 04:49:51;;;;;;;;;;;;;;;11.03;64.25;93434.47;2072021;69;20054;-75
2022/05/10 04:52:17;;;;;;;;;;;;;;;11.01;63.89;93428.69;2058798;69;20050;-75
2022/05/10 04:54:42;;;;;;;;;;;;;;;11.21;63.51;93435.75;2058941;69;20437;-75
2022/05/10 04:57:08;;;;;;;;;;;;;;;11.32;62.59;93432.31;2059031;69;20058;-73
2022/05/10 04:59:33;;;;;;;;;;;;;;;11.29;62.78;93436.31;2058924;69;20054;-73
2022/05/10 05:01:59;;;;;;;;;;;;;;;11.35;62.49;93433.16;2072148;69;20050;-72
2022/05/10 05:04:24;;;;;;;;;;;;;;;11.43;62.08;93436.56;2058590;69;20523;-72
2022/05/10 05:06:51;;;;;;;;;;;;;;;11.31;62.75;93432.88;2072008;69;20062;-73
2022/05/10 05:09:17;;;;;;;;;;;;;;;11.27;62.48;93444.63;2059080;69;20086;-72
2022/05/10 05:11:42;;;;;;;;;;;;;;;11.43;62.83;93448.56;2072032;69;20137;-74
2022/05/10 05:14:10;;;;;;;;;;;;;;;11.41;63.16;93448.44;2058940;69;20098;-73
2022/05/10 05:16:36;;;;;;;;;;;;;;;11.38;63.40;93446.06;2058906;69;20073;-73
2022/05/10 05:19:01;;;;;;;;;;;;;;;11.19;63.25;93444.06;2058852;69;20062;-72
2022/05/10 05:21:27;;;;;;;;;;;;;;;11.35;62.98;93442.38;2059018;69;20053;-72
2022/05/10 05:23:54;;;;;;;;;;;;;;;11.39;61.78;93441.91;2059017;69;20049;-74
2022/05/10 05:26:22;;;;;;;;;;;;;;;11.21;62.71;93435.75;2072024;69;20053;-76
2022/05/10 05:28:47;;;;;;;;;;;;;;;11.38;62.34;93434.81;2058873;69;20049;-77
2022/05/10 05:31:14;;;;;;;;;;;;;;;11.33;63.41;93424.59;2058864;69;20057;-76
2022/05/10 05:33:44;;;;;;;;;;;;;;;11.40;62.63;93423.66;2058842;69;20120;-77
2022/05/10 05:36:10;;;;;;;;;;;;;;;11.42;62.55;93429.44;2058528;69;20097;-72
2022/05/10 05:38:42;;;;;;;;;;;;;;;11.45;61.71;93417.72;2059107;69;20057;-73
2022/05/10 05:41:07;;;;;;;;;;;;;;;11.30;63.13;93420.13;2059074;69;20050;-72
2022/05/10 05:43:34;;;;;;;;;;;;;;;11.55;61.60;93426.13;2058881;69;20114;-73
2022/05/10 05:46:01;;;;;;;;;;;;;;;11.47;61.28;93408.66;2071601;69;20060;-72
2022/05/10 05:48:27;;;;;;;;;;;;;;;11.34;63.07;93418.34;2058772;69;20468;-74
2022/05/10 05:50:52;;;;;;;;;;;;;;;11.32;62.03;93420.28;2059360;69;20215;-72
2022/05/10 05:53:19;;;;;;;;;;;;;;;11.40;62.02;93421.56;2072328;69;20469;-73
2022/05/10 05:55:47;;;;;;;;;;;;;;;11.39;61.23;93422.19;2059433;69;20556;-73
2022/05/10 05:58:13;;;;;;;;;;;;;;;11.48;61.28;93427.03;2059323;69;20060;-76
2022/05/10 06:00:38;;;;;;;;;;;;;;;11.45;61.52;93419.78;2072442;69;20050;-75
2022/05/10 06:03:04;;;;;;;;;;;;;;;11.45;61.01;93419.78;2059333;69;20095;-76
2022/05/10 06:05:30;;;;;;;;;;;;;;;11.56;61.41;93413.50;2059283;69;20231;-74
2022/05/10 06:07:55;;;;;;;;;;;;;;;11.54;62.51;93423.88;2059336;69;20073;-73
2022/05/10 06:10:20;;;;;;;;;;;;;;;11.40;62.86;93415.94;2072358;69;20046;-73
2022/05/10 06:12:46;;;;;;;;;;;;;;;11.60;62.43;93413.78;2059334;69;20115;-73
2022/05/10 06:15:14;;;;;;;;;;;;;;;11.56;63.21;93421.97;2059389;69;20463;-74
2022/05/10 06:17:41;;;;;;;;;;;;;;;11.66;62.96;93419.09;2059264;69;20081;-72
2022/05/10 06:20:07;;;;;;;;;;;;;;;11.65;63.14;93426.06;2059278;69;20050;-73
2022/05/10 06:22:35;;;;;;;;;;;;;;;11.70;62.99;93416.56;2059229;69;20487;-74
2022/05/10 06:25:03;;;;;;;;;;;;;;;11.65;62.12;93414.81;2059138;69;20057;-72
2022/05/10 06:27:28;;;;;;;;;;;;;;;11.84;62.30;93416.81;2058987;69;20042;-72
2022/05/10 06:29:53;;;;;;;;;;;;;;;11.95;61.70;93419.69;2059167;69;20050;-71
2022/05/10 06:32:21;;;;;;;;;;;;;;;12.08;61.45;93415.59;2059313;69;20065;-74
2022/05/10 06:34:46;;;;;;;;;;;;;;;12.17;61.38;93405.59;2059181;69;20109;-73
2022/05/10 06:38:16;;;;;;;;;;;;;;;12.29;64.17;93408.47;2059220;69;20141;-75
2022/05/10 06:40:03;;;;;;;;;;;;;;;12.38;61.67;93408.41;2059046;69;20046;-74
2022/05/10 06:42:28;;;;;;;;;;;;;;;12.53;61.35;93398.03;2059217;69;20054;-74
2022/05/10 06:44:54;;;;;;;;;;;;;;;12.67;59.38;93399.69;2059324;69;20057;-74
2022/05/10 06:47:19;;;;;;;;;;;;;;;12.72;59.87;93392.94;2059162;69;20058;-73
2022/05/10 06:49:45;;;;;;;;;;;;;;;12.79;59.23;93401.81;2059120;69;20483;-73
2022/05/10 06:52:17;;;;;;;;;;;;;;;12.81;60.29;93387.81;2059214;69;20053;-72
2022/05/10 06:54:42;;;;;;;;;;;;;;;12.98;59.85;93387.50;2059165;69;20541;-73
2022/05/10 06:57:08;;;;;;;;;;;;;;;13.09;60.12;93377.53;2058850;69;20051;-75
2022/05/10 06:59:33;;;;;;;;;;;;;;;12.96;63.03;93385.25;2059188;69;20045;-74
2022/05/10 07:01:59;;;;;;;;;;;;;;;13.11;61.99;93383.34;2072074;69;20046;-74
2022/05/10 07:04:24;;;;;;;;;;;;;;;13.30;61.82;93380.31;2059331;69;20062;-72
2022/05/10 07:06:49;;;;;;;;;;;;;;;13.32;61.73;93380.44;2059184;69;20402;-73
2022/05/10 07:09:15;;;;;;;;;;;;;;;13.57;62.33;93384.75;2072257;69;20164;-72
2022/05/10 07:15:17;;;;;;;;;;;;;;;13.84;61.56;93393.47;2059234;69;20040;-73
2022/05/10 07:17:48;;;;;;;;;;;;;;;13.96;60.84;93382.13;2058783;69;20515;-73
2022/05/10 07:20:14;;;;;;;;;;;;;;;14.12;60.05;93383.09;2059140;69;20505;-73
2022/05/10 07:22:40;;;;;;;;;;;;;;;14.29;60.87;93381.91;2059111;69;20085;-72
2022/05/10 07:25:05;;;;;;;;;;;;;;;14.55;59.30;93382.72;2059402;69;20065;-73
2022/05/10 07:27:31;;;;;;;;;;;;;;;14.83;59.53;93375.09;2059151;69;20062;-72
2022/05/10 07:29:56;;;;;;;;;;;;;;;15.21;56.96;93382.16;2059097;69;20042;-76
2022/05/10 07:32:24;;;;;;;;;;;;;;;15.24;55.13;93377.31;2058818;69;20069;-73
2022/05/10 07:34:49;;;;;;;;;;;;;;;15.57;54.42;93379.06;2072159;69;20098;-73
2022/05/10 07:37:15;;;;;;;;;;;;;;;15.83;54.45;93371.97;2059084;69;20065;-73
2022/05/10 07:39:40;;;;;;;;;;;;;;;16.40;55.13;93368.44;2059085;69;20110;-73
2022/05/10 07:42:06;;;;;;;;;;;;;;;16.73;54.81;93371.56;2058975;69;20096;-73
2022/05/10 07:44:31;;;;;;;;;;;;;;;17.07;55.76;93366.03;2059078;69;20057;-72
2022/05/10 07:46:57;;;;;;;;;;;;;;;17.51;54.39;93360.97;2059233;69;20062;-73
2022/05/10 07:49:22;;;;;;;;;;;;;;;17.64;51.47;93353.69;2072055;69;20119;-73
2022/05/10 07:51:48;;;;;;;;;;;;;;;18.09;51.75;93350.00;2059090;69;20062;-73
2022/05/10 07:54:13;;;;;;;;;;;;;;;18.31;51.06;93350.22;2058874;69;20050;-73
2022/05/10 07:56:40;;;;;;;;;;;;;;;18.76;48.61;93344.28;2059034;69;20065;-74
2022/05/10 07:59:06;;;;;;;;;;;;;;;18.86;46.49;93338.97;2059161;69;20073;-74
2022/05/10 08:01:31;;;;;;;;;;;;;;;18.78;45.21;93341.50;2059198;69;20049;-73
2022/05/10 08:03:57;;;;;;;;;;;;;;;19.20;48.01;93339.63;2059019;69;20042;-72
2022/05/10 08:06:22;;;;;;;;;;;;;;;19.37;45.42;93329.56;2059145;69;20115;-73
2022/05/10 08:08:51;;;;;;;;;;;;;;;19.51;46.11;93332.94;2059121;69;20118;-73
2022/05/10 08:11:17;;;;;;;;;;;;;;;19.37;42.85;93325.97;2059022;69;20133;-73
2022/05/10 08:13:42;;;;;;;;;;;;;;;19.77;43.76;93316.09;2059049;69;20149;-73
2022/05/10 08:16:11;;;;;;;;;;;;;;;19.72;43.87;93319.47;2059048;69;20046;-72
2022/05/10 08:18:39;;;;;;;;;;;;;;;20.11;42.36;93320.84;2058899;69;20551;-73
2022/05/10 08:21:05;;;;;;;;;;;;;;;20.47;43.77;93312.78;2059066;69;20050;-72
2022/05/10 08:23:32;;;;;;;;;;;;;;;20.76;42.79;93306.66;2059011;69;20046;-74
2022/05/10 08:25:59;;;;;;;;;;;;;;;20.31;41.64;93305.13;2059047;69;20054;-76
2022/05/10 08:28:25;;;;;;;;;;;;;;;21.21;40.02;93310.94;2058720;69;20062;-73
2022/05/10 08:30:51;;;;;;;;;;;;;;;21.24;39.49;93303.13;2059001;69;20057;-76
2022/05/10 08:33:23;;;;;;;;;;;;;;;22.38;39.70;93300.69;2058891;69;20416;-73
2022/05/10 08:35:53;;;;;;;;;;;;;;;22.01;39.41;93299.69;2058708;69;20174;-73
2022/05/10 08:38:22;;;;;;;;;;;;;;;21.74;36.38;93312.53;2058976;69;20072;-75
2022/05/10 08:44:19;;;;;;;;;;;;;;;22.33;37.43;93293.38;2059016;69;20053;-73
2022/05/10 08:46:49;;;;;;;;;;;;;;;22.70;35.47;93292.19;2058982;69;20537;-74
2022/05/10 08:49:33;;;;;;;;;;;;;;;22.03;35.45;93287.53;2071924;69;20046;-75
2022/05/10 08:51:58;;;;;;;;;;;;;;;22.58;35.75;93286.13;2059121;69;20054;-77
2022/05/10 08:54:25;;;;;;;;;;;;;;;22.19;34.50;93281.53;2058961;69;20078;-77
2022/05/10 08:56:53;;;;;;;;;;;;;;;23.62;34.75;93279.97;2059059;69;20432;-75
2022/05/10 08:59:21;;;;;;;;;;;;;;;23.78;35.82;93280.34;2058893;69;20056;-74
2022/05/10 09:02:01;;;;;;;;;;;;;;;24.09;35.35;93278.06;2058667;69;20054;-73
2022/05/10 09:04:49;;;;;;;;;;;;;;;24.74;35.21;93272.78;2071873;69;20143;-73
2022/05/10 09:07:27;;;;;;;;;;;;;;;24.69;33.97;93274.13;2057036;69;20103;-73
2022/05/10 09:10:13;;;;;;;;;;;;;;;25.19;33.90;93267.78;2058927;69;20406;-74
2022/05/10 09:12:49;;;;;;;;;;;;;;;25.44;33.13;93263.09;2056797;69;20120;-73
2022/05/10 09:15:18;;;;;;;;;;;;;;;25.42;33.10;93260.19;2058554;69;20050;-73
2022/05/10 09:17:44;;;;;;;;;;;;;;;25.25;31.75;93259.97;2058758;69;20132;-73
2022/05/10 09:20:11;;;;;;;;;;;;;;;26.13;30.89;93252.47;2058935;69;20089;-73
2022/05/10 09:22:55;;;;;;;;;;;;;;;25.89;28.27;93246.41;2058851;69;20072;-73
2022/05/10 09:25:20;;;;;;;;;;;;;;;25.41;29.02;93247.94;2058622;69;20073;-73
2022/05/10 09:27:46;;;;;;;;;;;;;;;25.37;28.56;93245.00;2058607;69;20050;-73
2022/05/10 09:30:24;;;;;;;;;;;;;;;25.19;30.43;93239.69;2058837;69;20046;-73
2022/05/10 09:35:48;;;;;;;;;;;;;;;25.46;30.28;93237.91;2059063;69;20046;-74
2022/05/10 09:38:16;;;;;;;;;;;;;;;26.16;29.92;93230.13;2058804;69;20168;-74
2022/05/10 09:40:46;;;;;;;;;;;;;;;26.61;29.46;93228.44;2058939;69;20061;-72
2022/05/10 09:43:22;;;;;;;;;;;;;;;26.19;30.87;93226.56;2058844;69;20058;-73
2022/05/10 09:46:08;;;;;;;;;;;;;;;26.98;30.37;93222.97;2058613;69;20070;-73
2022/05/10 09:48:34;;;;;;;;;;;;;;;27.36;29.07;93223.28;2058694;69;20054;-73
2022/05/10 09:51:17;;;;;;;;;;;;;;;26.95;28.76;93216.47;2058800;69;20050;-72
2022/05/10 09:53:42;;;;;;;;;;;;;;;26.84;28.84;93217.81;2058952;69;20474;-73
2022/05/10 09:56:29;;;;;;;;;;;;;;;26.63;27.64;93213.31;2058913;69;20054;-74
2022/05/10 09:58:55;;;;;;;;;;;;;;;27.27;31.07;93216.00;2071826;69;20501;-73
2022/05/10 10:01:39;;;;;;;;;;;;;;;27.17;27.77;93212.28;2058782;69;20145;-73
2022/05/10 10:04:14;;;;;;;;;;;;;;;27.13;29.82;93215.91;2058727;69;20081;-73
2022/05/10 10:06:42;;;;;;;;;;;;;;;27.39;30.30;93209.53;2058800;69;20078;-73
2022/05/10 10:09:09;;;;;;;;;;;;;;;28.61;29.24;93210.03;2058898;69;20056;-74
2022/05/10 10:11:38;;;;;;;;;;;;;;;28.04;29.03;93203.34;2071856;69;20077;-74
2022/05/10 10:14:10;;;;;;;;;;;;;;;29.38;28.73;93203.50;2069083;69;20054;-73
2022/05/10 10:20:06;;;;;;;;;;;;;;;29.57;25.26;93197.69;2058902;69;20509;-78
2022/05/10 10:22:46;;;;;;;;;;;;;;;29.62;26.54;93193.31;2058692;69;20046;-74
2022/05/10 10:25:17;;;;;;;;;;;;;;;29.37;24.54;93195.53;2058723;69;20115;-75
2022/05/10 10:27:50;;;;;;;;;;;;;;;30.93;25.53;93183.91;2058700;69;20085;-73
2022/05/10 10:30:19;;;;;;;;;;;;;;;31.69;23.67;93187.56;2058651;69;20061;-74
2022/05/10 10:33:08;;;;;;;;;;;;;;;30.78;20.93;93180.41;2068862;69;20107;-75
2022/05/10 10:35:38;;;;;;;;;;;;;;;29.49;22.38;93175.19;2057061;69;20054;-74
2022/05/10 10:38:09;;;;;;;;;;;;;;;31.01;22.45;93178.75;2059250;69;20046;-72
2022/05/10 10:40:39;;;;;;;;;;;;;;;30.77;19.91;93182.59;2072294;69;20058;-73
2022/05/10 10:43:17;;;;;;;;;;;;;;;32.22;20.99;93177.50;2059248;69;20048;-72
2022/05/10 10:45:45;;;;;;;;;;;;;;;33.12;18.59;93171.09;2059196;69;20050;-72
2022/05/10 10:48:13;;;;;;;;;;;;;;;32.98;16.61;93165.50;2059092;69;20042;-72
2022/05/10 10:50:39;;;;;;;;;;;;;;;33.31;17.86;93160.56;2059217;69;20058;-76
2022/05/10 10:53:07;;;;;;;;;;;;;;;33.27;17.60;93165.75;2059209;69;20073;-73
2022/05/10 10:55:35;;;;;;;;;;;;;;;35.16;17.72;93164.00;2058871;69;20501;-74
2022/05/10 10:58:19;;;;;;;;;;;;;;;35.57;15.02;93160.78;2059361;69;20462;-74
2022/05/10 11:01:07;;;;;;;;;;;;;;;38.32;14.92;93171.25;2059447;69;20111;-75
2022/05/10 11:03:38;;;;;;;;;;;;;;;37.63;14.26;93166.31;2059259;69;20132;-72
2022/05/10 11:06:10;;;;;;;;;;;;;;;37.88;13.50;93165.47;2059157;69;20145;-73
2022/05/10 11:08:38;;;;;;;;;;;;;;;37.98;13.44;93170.25;2059211;69;20054;-75
2022/05/10 11:11:04;;;;;;;;;;;;;;;39.23;12.93;93163.34;2059109;69;20497;-74
2022/05/10 11:13:32;;;;;;;;;;;;;;;39.53;12.98;93170.16;2059138;69;20050;-75
2022/05/10 11:16:10;;;;;;;;;;;;;;;41.11;12.22;93167.56;2059161;69;20054;-74
2022/05/10 11:18:38;;;;;;;;;;;;;;;43.30;11.01;93160.53;2072069;69;20046;-74
2022/05/10 11:21:14;;;;;;;;;;;;;;;42.25;12.08;93152.97;2058781;69;20061;-76
2022/05/10 11:27:10;;;;;;;;;;;;;;;41.78;11.78;93140.56;2059099;69;20053;-75
2022/05/10 11:29:43;;;;;;;;;;;;;;;40.91;12.00;93139.69;2059028;69;20084;-73
2022/05/10 11:32:21;;;;;;;;;;;;;;;42.42;11.82;93143.22;2058933;69;20057;-74
2022/05/10 11:34:47;;;;;;;;;;;;;;;42.38;11.11;93144.13;2058917;69;20093;-74
2022/05/10 11:37:15;;;;;;;;;;;;;;;45.26;10.57;93144.97;2072037;69;20090;-74
2022/05/10 11:40:10;;;;;;;;;;;;;;;43.91;10.27;93138.50;2071910;69;20477;-74
2022/05/10 11:42:47;;;;;;;;;;;;;;;46.66;9.48;93137.75;2046755;69;20071;-81
2022/05/10 11:45:24;;;;;;;;;;;;;;;41.78;10.13;93131.72;2058998;69;20042;-73
2022/05/10 11:47:53;;;;;;;;;;;;;;;46.90;9.11;93134.56;2058901;69;20417;-74
2022/05/10 11:50:37;;;;;;;;;;;;;;;46.56;9.43;93130.25;2058923;69;20046;-73
2022/05/10 11:53:13;;;;;;;;;;;;;;;49.04;8.44;93136.25;2059016;69;20500;-75
2022/05/10 11:55:54;;;;;;;;;;;;;;;49.81;7.99;93138.91;2059112;69;20050;-76
2022/05/10 11:58:21;;;;;;;;;;;;;;;46.86;7.53;93132.59;2058885;69;20511;-75
2022/05/10 12:00:51;;;;;;;;;;;;;;;46.26;8.40;93112.25;2059171;69;20109;-76
2022/05/10 12:03:35;;;;;;;;;;;;;;;48.22;8.49;93121.06;2058665;69;20122;-74
2022/05/10 12:06:19;;;;;;;;;;;;;;;47.21;7.37;93109.25;2058870;69;20130;-74
2022/05/10 12:08:45;;;;;;;;;;;;;;;49.02;7.90;93112.50;2058927;69;20061;-75
2022/05/10 12:11:40;;;;;;;;;;;;;;;46.96;7.93;93099.09;2058933;69;20050;-75
2022/05/10 12:22:45;;;;;;;;;;;;;;;47.05;7.33;93079.06;2058918;69;20142;-74
2022/05/10 12:25:31;;;;;;;;;;;;;;;48.68;6.74;93083.13;2058742;69;20062;-74
2022/05/10 12:27:58;;;;;;;;;;;;;;;45.83;8.15;93073.56;2058900;69;20069;-73
2022/05/10 12:30:31;;;;;;;;;;;;;;;49.94;7.46;93075.03;2058846;69;20101;-75
2022/05/10 12:32:57;;;;;;;;;;;;;;;49.20;6.32;93075.16;2058849;69;20149;-72
2022/05/10 12:35:30;;;;;;;;;;;;;;;49.41;7.55;93067.50;2071914;69;20053;-73
2022/05/10 12:37:58;;;;;;;;;;;;;;;46.00;7.66;93058.25;2058891;69;20086;-73
2022/05/10 12:40:31;;;;;;;;;;;;;;;47.71;8.38;93068.28;2058848;69;20046;-73
2022/05/10 12:43:03;;;;;;;;;;;;;;;48.55;7.78;93057.22;2058905;69;20522;-73
2022/05/10 12:45:33;;;;;;;;;;;;;;;48.50;7.99;93050.16;2058894;69;20119;-73
2022/05/10 12:48:18;;;;;;;;;;;;;;;48.95;7.08;93055.53;2058848;69;20561;-74
2022/05/10 12:50:59;;;;;;;;;;;;;;;48.08;7.49;93043.00;2058923;69;20137;-73
2022/05/10 12:53:40;;;;;;;;;;;;;;;46.57;8.36;93033.41;2058886;69;20474;-73
2022/05/10 12:56:13;;;;;;;;;;;;;;;47.05;8.05;93037.38;2058881;69;20076;-74
2022/05/10 12:58:43;;;;;;;;;;;;;;;47.93;7.81;93033.00;2071672;69;20082;-74
2022/05/10 13:01:11;;;;;;;;;;;;;;;49.00;7.93;93032.69;2058886;69;20050;-72
2022/05/10 13:07:14;;;;;;;;;;;;;;;43.34;9.88;93023.31;2058903;69;20162;-73
2022/05/10 13:09:50;;;;;;;;;;;;;;;47.76;7.55;93025.34;2071900;69;20050;-74
2022/05/10 13:12:16;;;;;;;;;;;;;;;45.49;8.95;93001.56;2058810;69;20565;-71
2022/05/10 13:14:46;;;;;;;;;;;;;;;42.78;10.79;92998.44;2058841;69;20074;-72
2022/05/10 13:17:18;;;;;;;;;;;;;;;38.86;12.38;92988.25;2058910;69;20058;-73
2022/05/10 13:19:44;;;;;;;;;;;;;;;35.24;16.05;92961.22;2058736;69;20054;-72
2022/05/10 13:22:14;;;;;;;;;;;;;;;37.09;14.95;92975.19;2058689;69;20106;-74
2022/05/10 13:24:45;;;;;;;;;;;;;;;36.95;16.46;92976.38;2071824;69;20085;-74
2022/05/10 13:27:20;;;;;;;;;;;;;;;36.14;14.07;92968.75;2058785;69;20058;-73
2022/05/10 13:29:50;;;;;;;;;;;;;;;33.39;15.54;92955.44;2071773;69;20152;-74
2022/05/10 13:32:27;;;;;;;;;;;;;;;34.08;15.33;92950.28;2058789;69;20073;-74
2022/05/10 13:34:53;;;;;;;;;;;;;;;32.65;16.34;92941.59;2058742;69;20072;-77
2022/05/10 13:37:27;;;;;;;;;;;;;;;32.28;18.83;92953.88;2068947;69;20518;-73
2022/05/10 13:39:53;;;;;;;;;;;;;;;32.48;16.54;92941.16;2058777;69;20094;-72
2022/05/10 13:46:07;;;;;;;;;;;;;;;32.06;17.02;92936.75;2058826;69;20135;-74
2022/05/10 13:48:34;;;;;;;;;;;;;;;31.31;16.95;92930.59;2058766;69;20054;-71
2022/05/10 13:51:04;;;;;;;;;;;;;;;30.36;18.58;92933.09;2058874;69;20111;-73
2022/05/10 13:53:31;;;;;;;;;;;;;;;31.06;17.57;92923.63;2058522;69;20441;-74
2022/05/10 13:55:57;;;;;;;;;;;;;;;30.99;17.44;92925.91;2058263;69;20065;-74
2022/05/10 13:58:30;;;;;;;;;;;;;;;31.13;17.04;92916.28;2058533;69;20050;-77
2022/05/10 14:00:56;;;;;;;;;;;;;;;30.86;18.62;92918.78;2058633;69;20070;-76
2022/05/10 14:03:23;;;;;;;;;;;;;;;30.42;18.81;92914.88;2058520;69;20056;-76
2022/05/10 14:05:49;;;;;;;;;;;;;;;30.59;19.20;92910.34;2058826;69;20053;-73
2022/05/10 14:08:19;;;;;;;;;;;;;;;30.44;19.20;92908.34;2058751;69;20050;-74
2022/05/10 14:10:57;;;;;;;;;;;;;;;29.17;20.63;92900.63;2059011;69;20065;-73
2022/05/10 14:13:23;;;;;;;;;;;;;;;28.79;19.45;92899.34;2072443;69;20081;-72
2022/05/10 14:15:48;;;;;;;;;;;;;;;28.67;19.60;92895.78;2059193;69;20162;-73